Main page
Satellite images 15-day forecastsClimateMarine weather Cyclones Lightning AirportsFAQ Newsletter About
Weather : Europe Africa North America South America Asia Australia-Oceania Others
Languages Contact

Tunis, Tunisia

Carthage

latitude: 36-50N, longitude: 010-14E, elevation: 3 m


METAR: DTTA 241930Z VRB02KT 9999 FEW033 26/15 Q1012 NOSIG
short-TAF: out of date (3636 hours)
long-TAF: DTTA 241625Z 2418/2518 07008KT 9999 FEW033 BECMG 2510/2512 16012KT

Time: 21:04 (20:04 UTC)

Current weather observation

The report was made 34 minutes ago, at 19:30 UTC  
Wind 02 kt from variable directions
Temperature 26°C
Humidity 51%
Pressure 1012 hPa
Visibility 10 km or more
Few clouds at a height of 3300 ft

Change units

Forecast

The report was made 3 hours and 37 minutes ago, at 16:27 UTC  
Forecast valid from 24 at 18 UTC to 25 at 18 UTC
Wind 08 kt from the East/Northeast
Visibility 10 km or more
Few clouds at a height of 3300 ft
Becoming
from 25 at 10 UTC to 25 at 12 UTC
Wind 12 kt from the South/Southeast
The information on this site is subject to a disclaimer
Weather : Europe Africa North America South America Asia Australia-Oceania Others
Satellite images 15-day forecastsClimateMarine weather Cyclones Lightning AirportsFAQ Languages Contact Newsletter About